Estación Meteorológica Peña el Pijo (Robertgarden) [ 10/16/18 04:29:25 CEST ]

Fecha Hora Presion(HPa) Temp (°C) Humedad % Rocio (°C) Viento ( m/s) Direccion Lluvia 1Hora(mm) Lluvia 24H(mm) LLuvia Total(mm)
2018-Apr-10 01:01:50 1000.100 5.6 66 -0.3 2.2 NW     190.10
2018-Apr-10 02:01:57 1000.200 5.6 68 0.2 2.2 N     190.10
2018-Apr-10 03:01:38 1000.200 4.6 73 0.2         190.10
2018-Apr-10 04:10:05 999.400 3.9 76 0.0         190.10
2018-Apr-10 05:03:53 999.200 3.6 79 0.3         190.10
2018-Apr-10 06:01:39 998.700 3.4 80 0.3         190.10
2018-Apr-10 07:01:47 998.100 3.2 81 0.3         190.10
2018-Apr-10 08:01:56 997.400 2.5 81 -0.4         190.10
2018-Apr-10 09:01:50 996.900 5.8 78 2.2         190.10
2018-Apr-10 10:01:46 996.200 7.4 69 2.1         190.10
2018-Apr-10 11:01:42 995.400 8.1 62 1.2 3.4 WNW     190.10
2018-Apr-10 12:02:02 995.100 8.7 61 1.6         190.10
2018-Apr-10 13:01:48 994.500 9.0 58 1.2         190.10
2018-Apr-10 14:01:54 993.200 9.8 55 1.2 1.3 NW     190.10
2018-Apr-10 15:01:50 992.200 10.5 55 1.8 1.9 NNW     190.10
2018-Apr-10 16:01:45 990.600 9.8 60 2.4 3.0 NNW     190.10
2018-Apr-10 17:01:50 989.100 9.5 63 2.8         190.10
2018-Apr-10 18:02:07 988.300 7.6 71 2.7         190.10
2018-Apr-10 19:01:29 987.500 6.9 75 2.8     1.03 1.03 191.14
2018-Apr-10 20:01:47 986.800 6.9 76 2.9 0.3 N 0.51 1.55 191.66
2018-Apr-10 21:01:35 985.900 7.0 77 3.2       1.55 191.66
2018-Apr-10 22:01:46 988.500 4.5 78 1.0     2.07 3.62 193.73
2018-Apr-10 23:01:53 988.400 2.9 82 0.1     1.55 5.18 195.28

Temperatura Máxima:10°    Temperatura Mínima:
Presión Máxima:1000.200 Hpa    Presión Mínima:985.900 Hpa


Volver